createdAt,value
2023-04-08T00:00:50.607Z,10.80
2023-04-08T00:03:18.260Z,10.73
2023-04-08T00:05:45.350Z,10.40
2023-04-08T00:08:12.315Z,9.83
2023-04-08T00:10:39.388Z,11.50
2023-04-08T00:13:06.782Z,10.57
2023-04-08T00:15:33.791Z,11.00
2023-04-08T00:18:01.125Z,10.33
2023-04-08T00:20:28.185Z,10.00
2023-04-08T00:22:55.386Z,10.87
2023-04-08T00:25:24.788Z,10.73
2023-04-08T00:27:52.511Z,11.03
2023-04-08T00:30:19.568Z,10.73
2023-04-08T00:32:46.826Z,11.13
2023-04-08T00:35:14.400Z,10.30
2023-04-08T00:37:41.537Z,9.93
2023-04-08T00:40:09.215Z,10.80
2023-04-08T00:42:36.646Z,11.20
2023-04-08T00:45:04.024Z,11.20
2023-04-08T00:47:31.373Z,11.23
2023-04-08T00:49:58.430Z,11.03
2023-04-08T00:52:25.744Z,9.47
2023-04-08T00:54:53.067Z,10.03
2023-04-08T00:57:20.100Z,11.13
2023-04-08T00:59:47.207Z,10.60
2023-04-08T01:02:30.018Z,10.17
2023-04-08T01:05:13.779Z,10.77
2023-04-08T01:07:47.784Z,9.70
2023-04-08T01:10:27.361Z,9.87
2023-04-08T01:13:18.134Z,10.57
2023-04-08T01:15:46.268Z,10.67
2023-04-08T01:18:16.492Z,9.70
2023-04-08T01:20:45.591Z,10.20
2023-04-08T01:23:41.654Z,9.37
2023-04-08T01:26:11.394Z,9.87
2023-04-08T01:28:40.987Z,9.63
2023-04-08T01:31:08.618Z,9.23
2023-04-08T01:33:36.772Z,9.53
2023-04-08T01:36:04.504Z,9.27
2023-04-08T01:38:34.026Z,8.67
2023-04-08T01:41:01.161Z,8.90
2023-04-08T01:43:32.281Z,9.03
2023-04-08T01:46:01.183Z,8.73
2023-04-08T01:48:29.453Z,8.57
2023-04-08T01:50:57.478Z,8.90
2023-04-08T01:53:24.775Z,9.17
2023-04-08T01:56:02.822Z,8.80
2023-04-08T01:58:41.084Z,9.13
2023-04-08T02:01:14.133Z,7.97
2023-04-08T02:03:44.620Z,9.17
2023-04-08T02:06:11.703Z,8.97
2023-04-08T02:08:38.919Z,9.03
2023-04-08T02:11:06.256Z,8.57
2023-04-08T02:13:33.640Z,9.03
2023-04-08T02:16:22.616Z,9.50
2023-04-08T02:19:49.324Z,9.50
2023-04-08T02:22:57.767Z,9.23
2023-04-08T02:25:26.247Z,10.30
2023-04-08T02:27:54.681Z,10.20
2023-04-08T02:30:23.366Z,9.53
2023-04-08T02:32:51.872Z,9.77
2023-04-08T02:35:20.204Z,10.23
2023-04-08T02:37:50.391Z,9.97
2023-04-08T02:40:32.861Z,10.67
2023-04-08T02:43:00.472Z,9.80
2023-04-08T02:45:32.036Z,10.50
2023-04-08T02:48:02.588Z,11.07
2023-04-08T02:50:29.601Z,11.33
2023-04-08T02:52:56.634Z,10.23
2023-04-08T02:55:23.657Z,9.83
2023-04-08T02:57:50.667Z,10.97
2023-04-08T03:00:18.163Z,10.40
2023-04-08T03:02:45.341Z,10.40
2023-04-08T03:05:12.530Z,10.23
2023-04-08T03:07:39.782Z,11.37
2023-04-08T03:10:07.764Z,9.33
2023-04-08T03:12:34.954Z,10.03
2023-04-08T03:15:03.457Z,11.63
2023-04-08T03:17:33.791Z,14.73
2023-04-08T03:20:07.194Z,12.97
2023-04-08T03:22:36.148Z,12.80
2023-04-08T03:25:03.340Z,11.67
2023-04-08T03:27:30.370Z,12.50
2023-04-08T03:29:57.950Z,11.13
2023-04-08T03:32:25.278Z,10.20
2023-04-08T03:34:52.339Z,10.87
2023-04-08T03:37:19.346Z,10.40
2023-04-08T03:39:46.517Z,10.33
2023-04-08T03:42:13.512Z,10.23
2023-04-08T03:44:40.610Z,11.37
2023-04-08T03:47:07.660Z,11.17
2023-04-08T03:49:34.752Z,10.83
2023-04-08T03:52:02.007Z,12.43
2023-04-08T03:54:29.050Z,12.93
2023-04-08T03:56:56.257Z,12.50
2023-04-08T03:59:23.385Z,14.20
2023-04-08T04:01:51.511Z,13.13
2023-04-08T04:04:19.063Z,13.57
2023-04-08T04:06:46.317Z,12.93
2023-04-08T04:09:13.475Z,12.03
2023-04-08T04:11:40.539Z,11.73
2023-04-08T04:14:07.554Z,10.33
2023-04-08T04:16:34.587Z,11.23
2023-04-08T04:19:01.632Z,10.47
2023-04-08T04:21:28.657Z,9.77
2023-04-08T04:23:55.721Z,10.70
2023-04-08T04:26:22.820Z,10.10
2023-04-08T04:28:50.194Z,10.07
2023-04-08T04:31:28.049Z,10.47
2023-04-08T04:33:55.308Z,10.23
2023-04-08T04:36:22.395Z,10.60
2023-04-08T04:38:51.566Z,10.60
2023-04-08T04:41:18.820Z,11.93
2023-04-08T04:43:45.866Z,12.47
2023-04-08T04:46:12.921Z,12.67
2023-04-08T04:48:40.602Z,11.47
2023-04-08T04:51:07.696Z,13.13
2023-04-08T04:53:34.817Z,13.07
2023-04-08T04:56:02.139Z,14.20
2023-04-08T04:58:29.932Z,13.70
2023-04-08T05:00:57.226Z,13.87
2023-04-08T05:03:24.444Z,13.30
2023-04-08T05:05:53.284Z,13.17
2023-04-08T05:08:21.519Z,13.47
2023-04-08T05:10:50.664Z,11.47
2023-04-08T05:13:18.597Z,11.23
2023-04-08T05:15:46.069Z,10.73
2023-04-08T05:18:13.450Z,10.20
2023-04-08T05:20:40.540Z,11.93
2023-04-08T05:23:08.082Z,11.27
2023-04-08T05:25:35.106Z,10.20
2023-04-08T05:28:02.519Z,10.93
2023-04-08T05:30:29.583Z,10.83
2023-04-08T05:32:58.636Z,11.63
2023-04-08T05:35:27.663Z,10.27
2023-04-08T05:37:54.829Z,11.17
2023-04-08T05:40:21.882Z,20.37
2023-04-08T05:42:48.955Z,29.33
2023-04-08T05:45:16.333Z,25.03
2023-04-08T05:47:43.502Z,29.27
2023-04-08T05:50:11.518Z,17.17
2023-04-08T05:52:45.389Z,10.70
2023-04-08T05:55:13.943Z,10.73
2023-04-08T05:57:41.843Z,11.93
2023-04-08T06:00:11.115Z,11.37
2023-04-08T06:02:39.023Z,13.60
2023-04-08T06:05:06.898Z,18.63
2023-04-08T06:07:34.988Z,15.03
2023-04-08T06:10:02.710Z,9.23
2023-04-08T06:12:30.058Z,11.23
2023-04-08T06:14:57.164Z,10.77
2023-04-08T06:17:24.707Z,8.77
2023-04-08T06:19:51.787Z,7.77
2023-04-08T06:22:18.739Z,8.57
2023-04-08T06:24:48.241Z,8.10
2023-04-08T06:27:15.908Z,8.70
2023-04-08T06:29:43.150Z,8.70
2023-04-08T06:32:11.328Z,8.43
2023-04-08T06:34:38.452Z,8.90
2023-04-08T06:37:06.440Z,8.93
2023-04-08T06:39:34.175Z,8.67
2023-04-08T06:42:01.610Z,8.37
2023-04-08T06:44:45.017Z,8.70
2023-04-08T06:47:12.016Z,8.47
2023-04-08T06:49:39.172Z,8.57
2023-04-08T06:52:06.992Z,8.43
2023-04-08T06:54:33.969Z,8.60
2023-04-08T06:57:01.192Z,9.77
2023-04-08T06:59:28.134Z,8.80
2023-04-08T07:01:55.520Z,9.93
2023-04-08T07:04:22.519Z,9.17
2023-04-08T07:06:49.574Z,8.33
2023-04-08T07:09:16.549Z,8.67
2023-04-08T07:11:43.583Z,7.73
2023-04-08T07:14:11.676Z,8.30
2023-04-08T07:16:38.724Z,8.47
2023-04-08T07:19:05.826Z,7.87
2023-04-08T07:21:33.165Z,8.10
2023-04-08T07:24:00.247Z,7.47
2023-04-08T07:26:28.447Z,7.67
2023-04-08T07:28:55.410Z,7.30
2023-04-08T07:31:22.449Z,6.83
2023-04-08T07:33:49.448Z,7.37
2023-04-08T07:36:18.328Z,7.97
2023-04-08T07:38:45.495Z,7.30
2023-04-08T07:41:12.548Z,7.10
2023-04-08T07:43:39.918Z,7.07
2023-04-08T07:46:07.718Z,7.03
2023-04-08T07:48:35.673Z,6.97
2023-04-08T07:51:11.130Z,6.75
2023-04-08T07:53:40.340Z,6.60
2023-04-08T07:56:15.285Z,7.30
2023-04-08T07:58:42.892Z,6.40
2023-04-08T08:01:22.440Z,6.83
2023-04-08T08:03:51.860Z,6.53
2023-04-08T08:06:19.505Z,6.88
2023-04-08T08:08:46.976Z,6.40
2023-04-08T08:11:14.093Z,6.30
2023-04-08T08:13:41.217Z,6.55
2023-04-08T08:16:11.407Z,6.83
2023-04-08T08:18:40.190Z,7.03
2023-04-08T08:21:09.166Z,7.00
2023-04-08T08:23:37.443Z,6.97
2023-04-08T08:26:10.187Z,7.35
2023-04-08T08:28:38.612Z,6.50
2023-04-08T08:31:06.220Z,6.50
2023-04-08T08:33:33.880Z,6.82
2023-04-08T08:36:01.203Z,7.10
2023-04-08T08:38:28.267Z,6.63
2023-04-08T08:41:00.218Z,6.60
2023-04-08T08:43:29.172Z,7.05
2023-04-08T08:45:56.411Z,6.93
2023-04-08T08:48:23.535Z,6.15
2023-04-08T08:50:50.757Z,7.25
2023-04-08T08:53:18.061Z,7.18
2023-04-08T08:56:13.648Z,7.45
2023-04-08T08:58:32.428Z,6.90
2023-04-08T09:00:59.391Z,7.18
2023-04-08T09:03:29.830Z,7.15
2023-04-08T09:06:01.953Z,6.75
2023-04-08T09:08:34.810Z,7.00
2023-04-08T09:11:22.353Z,6.55
2023-04-08T09:13:49.575Z,7.18
2023-04-08T09:16:19.844Z,7.03
2023-04-08T09:18:49.430Z,6.65
2023-04-08T09:21:18.067Z,7.50
2023-04-08T09:23:49.535Z,7.80
2023-04-08T09:26:24.216Z,10.80
2023-04-08T09:29:18.418Z,8.98
2023-04-08T09:32:00.197Z,6.90
2023-04-08T09:34:29.672Z,7.68
2023-04-08T09:36:56.896Z,7.75
2023-04-08T09:39:24.220Z,7.90
2023-04-08T09:41:52.599Z,6.90
2023-04-08T09:44:22.062Z,6.88
2023-04-08T09:47:24.516Z,7.63
2023-04-08T09:49:58.592Z,7.13
2023-04-08T09:52:34.033Z,7.40
2023-04-08T09:55:06.682Z,7.07
2023-04-08T09:58:16.774Z,6.93
2023-04-08T10:00:52.448Z,7.65
2023-04-08T10:03:41.290Z,7.00
2023-04-08T10:06:10.397Z,6.97
2023-04-08T10:08:37.818Z,6.70
2023-04-08T10:11:05.036Z,7.47
2023-04-08T10:13:34.350Z,7.80
2023-04-08T10:16:24.724Z,8.02
2023-04-08T10:18:58.283Z,7.47
2023-04-08T10:21:51.033Z,6.85
2023-04-08T10:24:19.014Z,7.47
2023-04-08T10:26:46.288Z,7.90
2023-04-08T10:29:18.890Z,10.43
2023-04-08T10:31:47.581Z,8.10
2023-04-08T10:34:26.459Z,7.13
2023-04-08T10:36:55.837Z,7.85
2023-04-08T10:39:23.054Z,6.88
2023-04-08T10:41:51.616Z,6.55
2023-04-08T10:44:26.905Z,6.68
2023-04-08T10:46:54.644Z,6.80
2023-04-08T10:49:22.608Z,6.75
2023-04-08T10:51:50.040Z,7.25
2023-04-08T10:54:18.955Z,7.25
2023-04-08T10:56:50.782Z,6.68
2023-04-08T10:59:28.609Z,6.68
2023-04-08T11:01:55.802Z,15.13
2023-04-08T11:04:23.742Z,6.05
2023-04-08T11:06:51.633Z,5.57
2023-04-08T11:09:19.114Z,6.13
2023-04-08T11:11:46.911Z,5.55
2023-04-08T11:14:14.842Z,6.35
2023-04-08T11:16:42.706Z,6.18
2023-04-08T11:19:09.869Z,6.22
2023-04-08T11:21:38.660Z,6.35
2023-04-08T11:24:13.413Z,6.00
2023-04-08T11:26:42.180Z,5.75
2023-04-08T11:29:14.409Z,5.22
2023-04-08T11:31:44.132Z,7.50
2023-04-08T11:34:11.459Z,5.70
2023-04-08T11:36:41.724Z,5.20
2023-04-08T11:39:12.331Z,5.50
2023-04-08T11:41:43.168Z,6.22
2023-04-08T11:44:10.658Z,6.00
2023-04-08T11:46:38.072Z,6.20
2023-04-08T11:49:08.269Z,5.63
2023-04-08T11:51:54.980Z,4.70
2023-04-08T11:54:32.665Z,4.95
2023-04-08T11:57:00.037Z,4.72
2023-04-08T11:59:29.322Z,4.85
2023-04-08T12:01:57.369Z,4.80
2023-04-08T12:04:24.620Z,4.10
2023-04-08T12:06:52.515Z,4.85
2023-04-08T12:09:19.635Z,5.05
2023-04-08T12:11:46.800Z,4.75
2023-04-08T12:14:14.760Z,4.35
2023-04-08T12:16:41.912Z,4.65
2023-04-08T12:19:08.943Z,4.90
2023-04-08T12:21:36.141Z,4.40
2023-04-08T12:24:03.301Z,4.78
2023-04-08T12:26:30.288Z,4.18
2023-04-08T12:28:57.386Z,4.38
2023-04-08T12:31:24.461Z,4.47
2023-04-08T12:33:51.785Z,4.88
2023-04-08T12:36:19.008Z,4.45
2023-04-08T12:38:45.984Z,4.80
2023-04-08T12:41:13.042Z,4.82
2023-04-08T12:43:39.975Z,5.03
2023-04-08T12:46:07.345Z,4.45
2023-04-08T12:48:34.608Z,4.28
2023-04-08T12:51:01.552Z,4.40
2023-04-08T12:53:28.554Z,4.57
2023-04-08T12:55:57.280Z,4.13
2023-04-08T12:58:25.689Z,4.47
2023-04-08T13:00:52.793Z,4.30
2023-04-08T13:03:19.973Z,4.32
2023-04-08T13:05:47.014Z,4.35
2023-04-08T13:08:13.967Z,4.20
2023-04-08T13:10:42.674Z,4.32
2023-04-08T13:13:09.700Z,4.20
2023-04-08T13:15:36.930Z,4.65
2023-04-08T13:18:04.871Z,3.92
2023-04-08T13:20:31.961Z,4.15
2023-04-08T13:23:00.580Z,3.97
2023-04-08T13:25:28.019Z,4.10
2023-04-08T13:27:55.160Z,4.30
2023-04-08T13:30:22.147Z,4.32
2023-04-08T13:32:49.261Z,4.00
2023-04-08T13:35:16.306Z,4.38
2023-04-08T13:37:43.411Z,4.60
2023-04-08T13:40:12.161Z,4.47
2023-04-08T13:42:39.276Z,4.20
2023-04-08T13:45:07.144Z,4.28
2023-04-08T13:47:35.871Z,3.50
2023-04-08T13:50:06.227Z,3.88
2023-04-08T13:52:33.356Z,3.92
2023-04-08T13:55:01.075Z,4.45
2023-04-08T13:57:28.345Z,4.20
2023-04-08T13:59:55.453Z,4.43
2023-04-08T14:02:23.279Z,4.75
2023-04-08T14:04:50.592Z,4.30
2023-04-08T14:07:17.641Z,4.28
2023-04-08T14:09:44.656Z,4.05
2023-04-08T14:12:11.670Z,4.30
2023-04-08T14:14:38.685Z,4.32
2023-04-08T14:17:05.919Z,4.38
2023-04-08T14:19:33.122Z,4.28
2023-04-08T14:22:00.106Z,4.50
2023-04-08T14:24:27.127Z,4.43
2023-04-08T14:26:54.170Z,4.53
2023-04-08T14:29:21.206Z,4.85
2023-04-08T14:31:48.182Z,4.50
2023-04-08T14:34:15.455Z,4.18
2023-04-08T14:36:42.647Z,4.85
2023-04-08T14:39:09.752Z,4.38
2023-04-08T14:41:36.735Z,4.50
2023-04-08T14:44:04.471Z,4.80
2023-04-08T14:46:31.706Z,4.53
2023-04-08T14:48:59.107Z,4.88
2023-04-08T14:51:26.094Z,4.53
2023-04-08T14:53:53.067Z,4.65
2023-04-08T14:56:20.124Z,4.13
2023-04-08T14:58:47.116Z,4.47
2023-04-08T15:01:14.256Z,4.28
2023-04-08T15:03:41.393Z,4.70
2023-04-08T15:06:08.509Z,4.50
2023-04-08T15:08:35.639Z,4.28
2023-04-08T15:11:02.600Z,4.43
2023-04-08T15:13:29.553Z,3.92
2023-04-08T15:15:56.716Z,4.03
2023-04-08T15:18:23.842Z,3.70
2023-04-08T15:20:50.847Z,3.80
2023-04-08T15:23:17.986Z,3.92
2023-04-08T15:25:45.000Z,3.70
2023-04-08T15:28:12.246Z,4.20
2023-04-08T15:30:39.306Z,4.32
2023-04-08T15:33:06.383Z,3.42
2023-04-08T15:35:33.730Z,3.70
2023-04-08T15:38:01.055Z,3.13
2023-04-08T15:40:34.020Z,3.35
2023-04-08T15:43:01.286Z,3.45
2023-04-08T15:45:28.646Z,3.38
2023-04-08T15:47:56.003Z,4.00
2023-04-08T15:50:23.129Z,3.58
2023-04-08T15:52:50.176Z,3.85
2023-04-08T15:55:17.876Z,4.15
2023-04-08T15:57:44.798Z,3.92
2023-04-08T16:00:13.943Z,4.20
2023-04-08T16:02:44.100Z,4.10
2023-04-08T16:05:12.441Z,4.25
2023-04-08T16:07:39.431Z,3.85
2023-04-08T16:10:07.266Z,4.55
2023-04-08T16:12:34.705Z,3.90
2023-04-08T16:15:01.770Z,4.53
2023-04-08T16:17:28.819Z,4.57
2023-04-08T16:19:55.860Z,4.30
2023-04-08T16:22:23.029Z,4.93
2023-04-08T16:24:49.991Z,4.63
2023-04-08T16:27:17.046Z,5.20
2023-04-08T16:29:44.059Z,4.82
2023-04-08T16:32:11.283Z,4.13
2023-04-08T16:34:38.245Z,4.60
2023-04-08T16:37:05.307Z,4.53
2023-04-08T16:39:32.637Z,4.30
2023-04-08T16:42:00.555Z,4.20
2023-04-08T16:44:27.769Z,3.90
2023-04-08T16:46:54.765Z,4.13
2023-04-08T16:49:21.982Z,4.22
2023-04-08T16:51:49.081Z,4.20
2023-04-08T16:54:16.279Z,3.97
2023-04-08T16:56:45.630Z,4.13
2023-04-08T16:59:13.327Z,4.03
2023-04-08T17:01:40.787Z,3.88
2023-04-08T17:04:07.835Z,3.28
2023-04-08T17:06:35.778Z,3.63
2023-04-08T17:09:04.052Z,3.90
2023-04-08T17:11:31.447Z,3.92
2023-04-08T17:13:58.627Z,4.72
2023-04-08T17:16:25.894Z,4.47
2023-04-08T17:18:53.039Z,4.50
2023-04-08T17:21:21.187Z,4.13
2023-04-08T17:23:48.501Z,4.65
2023-04-08T17:26:15.488Z,4.68
2023-04-08T17:28:43.401Z,4.20
2023-04-08T17:31:11.029Z,4.55
2023-04-08T17:33:38.003Z,4.03
2023-04-08T17:36:05.563Z,4.88
2023-04-08T17:38:32.899Z,4.60
2023-04-08T17:40:59.875Z,4.28
2023-04-08T17:43:27.223Z,4.35
2023-04-08T17:45:54.501Z,5.10
2023-04-08T17:48:21.475Z,4.82
2023-04-08T17:50:48.468Z,4.97
2023-04-08T17:53:15.439Z,4.30
2023-04-08T17:55:42.812Z,4.80
2023-04-08T17:58:09.833Z,4.55
2023-04-08T18:00:36.782Z,4.47
2023-04-08T18:03:04.416Z,5.53
2023-04-08T18:05:31.905Z,5.32
2023-04-08T18:07:59.320Z,6.40
2023-04-08T18:10:26.380Z,5.40
2023-04-08T18:13:03.774Z,5.18
2023-04-08T18:15:38.084Z,5.72
2023-04-08T18:18:05.252Z,8.38
2023-04-08T18:20:36.648Z,5.80
2023-04-08T18:23:04.472Z,5.40
2023-04-08T18:25:32.298Z,7.30
2023-04-08T18:27:59.568Z,6.35
2023-04-08T18:30:26.943Z,6.80
2023-04-08T18:32:54.099Z,7.85
2023-04-08T18:35:21.188Z,8.35
2023-04-08T18:37:48.218Z,7.60
2023-04-08T18:40:15.470Z,6.63
2023-04-08T18:42:42.414Z,5.82
2023-04-08T18:45:09.907Z,6.70
2023-04-08T18:47:37.852Z,4.97
2023-04-08T18:50:06.471Z,4.95
2023-04-08T18:52:33.576Z,5.00
2023-04-08T18:55:01.091Z,4.93
2023-04-08T18:57:28.178Z,5.22
2023-04-08T18:59:55.084Z,5.18
2023-04-08T19:02:22.941Z,5.30
2023-04-08T19:04:50.092Z,5.15
2023-04-08T19:07:17.805Z,4.90
2023-04-08T19:09:44.814Z,5.15
2023-04-08T19:12:11.880Z,5.72
2023-04-08T19:14:39.559Z,5.53
2023-04-08T19:17:06.694Z,5.45
2023-04-08T19:19:33.700Z,5.28
2023-04-08T19:22:02.879Z,5.65
2023-04-08T19:24:29.865Z,5.43
2023-04-08T19:26:56.870Z,5.22
2023-04-08T19:29:24.486Z,5.53
2023-04-08T19:31:52.880Z,5.65
2023-04-08T19:34:20.018Z,5.93
2023-04-08T19:36:47.796Z,6.28
2023-04-08T19:39:14.804Z,6.20
2023-04-08T19:41:41.761Z,6.70
2023-04-08T19:44:08.766Z,6.13
2023-04-08T19:46:35.809Z,6.35
2023-04-08T19:49:03.189Z,6.05
2023-04-08T19:51:31.309Z,6.50
2023-04-08T19:53:58.931Z,6.50
2023-04-08T19:56:26.406Z,7.43
2023-04-08T19:58:53.569Z,8.77
2023-04-08T20:01:21.208Z,8.30
2023-04-08T20:03:50.673Z,6.93
2023-04-08T20:06:19.102Z,8.05
2023-04-08T20:08:46.766Z,11.48
2023-04-08T20:11:13.805Z,12.95
2023-04-08T20:13:41.097Z,13.27
2023-04-08T20:16:08.193Z,11.00
2023-04-08T20:18:35.220Z,11.90
2023-04-08T20:21:02.327Z,12.32
2023-04-08T20:23:29.368Z,15.13
2023-04-08T20:25:56.728Z,16.20
2023-04-08T20:28:23.850Z,15.10
2023-04-08T20:30:51.851Z,12.52
2023-04-08T20:33:19.203Z,10.50
2023-04-08T20:35:47.534Z,10.73
2023-04-08T20:38:14.622Z,10.23
2023-04-08T20:40:45.521Z,10.18
2023-04-08T20:43:12.606Z,10.60
2023-04-08T20:45:39.580Z,10.75
2023-04-08T20:48:07.337Z,10.50
2023-04-08T20:50:34.928Z,10.60
2023-04-08T20:53:01.900Z,10.88
2023-04-08T20:55:28.892Z,10.13
2023-04-08T20:57:55.904Z,9.80
2023-04-08T21:00:22.913Z,10.10
2023-04-08T21:02:51.011Z,10.13
2023-04-08T21:05:18.130Z,9.85
2023-04-08T21:07:45.194Z,10.45
2023-04-08T21:10:17.376Z,10.80
2023-04-08T21:12:45.682Z,10.52
2023-04-08T21:15:12.672Z,9.07
2023-04-08T21:17:39.652Z,8.98
2023-04-08T21:20:07.580Z,8.05
2023-04-08T21:22:34.560Z,8.20
2023-04-08T21:25:01.534Z,8.50
2023-04-08T21:27:29.072Z,7.65
2023-04-08T21:29:56.196Z,8.07
2023-04-08T21:32:23.461Z,7.38
2023-04-08T21:34:54.074Z,8.00
2023-04-08T21:37:21.174Z,8.27
2023-04-08T21:39:48.416Z,9.10
2023-04-08T21:42:15.382Z,8.05
2023-04-08T21:44:42.379Z,8.13
2023-04-08T21:47:09.350Z,7.95
2023-04-08T21:49:36.619Z,8.63
2023-04-08T21:52:04.902Z,8.98
2023-04-08T21:54:31.886Z,8.35
2023-04-08T21:56:58.966Z,7.90
2023-04-08T21:59:27.673Z,7.88
2023-04-08T22:01:54.811Z,8.13
2023-04-08T22:04:21.890Z,8.07
2023-04-08T22:06:49.589Z,8.68
2023-04-08T22:09:16.905Z,8.48
2023-04-08T22:11:43.963Z,8.23
2023-04-08T22:14:10.981Z,8.25
2023-04-08T22:16:38.389Z,8.23
2023-04-08T22:19:05.509Z,8.52
2023-04-08T22:21:32.848Z,7.70
2023-04-08T22:23:59.899Z,7.95
2023-04-08T22:26:27.585Z,7.82
2023-04-08T22:28:55.092Z,8.13
2023-04-08T22:31:22.347Z,8.23
2023-04-08T22:33:49.500Z,8.45
2023-04-08T22:36:17.010Z,10.07
2023-04-08T22:38:44.140Z,30.08
2023-04-08T22:41:19.481Z,21.75
2023-04-08T22:43:46.945Z,13.18
2023-04-08T22:46:14.490Z,11.27
2023-04-08T22:48:41.856Z,11.57
2023-04-08T22:51:10.174Z,12.73
2023-04-08T22:53:37.754Z,14.63
2023-04-08T22:56:05.339Z,15.23
2023-04-08T22:58:32.326Z,18.38
2023-04-08T23:00:59.319Z,15.65
2023-04-08T23:03:26.535Z,10.87
2023-04-08T23:05:53.593Z,9.77
2023-04-08T23:08:20.818Z,12.20
2023-04-08T23:10:47.773Z,14.27
2023-04-08T23:13:14.685Z,12.68
2023-04-08T23:15:41.986Z,11.88
2023-04-08T23:18:09.038Z,10.40
2023-04-08T23:20:36.077Z,8.90
2023-04-08T23:23:03.566Z,8.57
2023-04-08T23:25:30.788Z,8.85
2023-04-08T23:27:57.847Z,9.02
2023-04-08T23:30:24.844Z,9.82
2023-04-08T23:32:51.830Z,8.00
2023-04-08T23:35:19.195Z,8.50
2023-04-08T23:37:46.318Z,10.95
2023-04-08T23:40:13.426Z,11.93
2023-04-08T23:42:40.416Z,9.38
2023-04-08T23:45:07.961Z,7.97
2023-04-08T23:47:35.010Z,8.77
2023-04-08T23:50:02.110Z,8.03
2023-04-08T23:52:29.119Z,8.30
2023-04-08T23:54:56.059Z,8.20
2023-04-08T23:57:23.188Z,8.70
2023-04-08T23:59:50.354Z,9.48
